This is the latest recevied weather packets stored in our database for station/object F1PPH-1. If no packets are shown the sender has not sent any weather packets the latest 10 day(s).
| Time | Temp. | Humidity | Pressure | Rain* | Wind** | Luminosity | Snow |
|---|---|---|---|---|---|---|---|
| 1777697406 | 15° C | 47% | 1011.9 hPa | - | - | - | - |
| 1777693808 | 15° C | 46% | 1012 hPa | - | - | - | - |
| 1777690205 | 15.56° C | 45% | 1012.4 hPa | - | - | - | - |
| 1777686605 | 16.11° C | 45% | 1012.8 hPa | - | - | - | - |
| 1777683004 | 16.67° C | 44% | 1013.5 hPa | - | - | - | - |
| 1777679406 | 17.78° C | 42% | 1013.9 hPa | - | - | - | - |
| 1777676215 | 18.33° C | 41% | 1013.9 hPa | - | - | - | - |
| 1777669014 | 21.67° C | 39% | 1014 hPa | - | - | - | - |
| 1777665413 | 23.33° C | 38% | 1014 hPa | - | - | - | - |
| 1777661813 | 25.56° C | 37% | 1013.3 hPa | - | - | - | - |
| 1777654613 | 29.44° C | 34% | 1012.6 hPa | - | - | - | - |
| 1777651732 | 31.67° C | 33% | 1012.6 hPa | - | - | - | - |
| 1777648854 | 33.33° C | 33% | 1013 hPa | - | - | - | - |
| 1777645971 | 36.11° C | 33% | 1013.4 hPa | - | - | - | - |
| 1777642371 | 34.44° C | 35% | 1014 hPa | - | - | - | - |
| 1777639492 | 33.89° C | 36% | 1014.3 hPa | - | - | - | - |
| 1777636611 | 31.11° C | 39% | 1014.6 hPa | - | - | - | - |
| 1777633730 | 28.89° C | 40% | 1015 hPa | - | - | - | - |
| 1777630130 | 24.44° C | 42% | 1015.3 hPa | - | - | - | - |
| 1777627253 | 24.44° C | 43% | 1015.2 hPa | - | - | - | - |
| 1777621489 | 20.56° C | 43% | 1014.9 hPa | - | - | - | - |
| 1777618610 | 18.89° C | 43% | 1014.7 hPa | - | - | - | - |
| 1777615010 | 16.67° C | 42% | 1014.6 hPa | - | - | - | - |
| 1777604928 | 15.56° C | 40% | 1013.6 hPa | - | - | - | - |
| 1777601329 | 16.67° C | 39% | 1013.2 hPa | - | - | - | - |
* Rain since midnight (hover to see other rain measurements)
** Current wind speed in m/s (hover to see current wind gust speed)